Time;durP1;ratioP1;P1;durP2;ratioP2;P2;SDS_P1;SDS_P2;PMS_P1;PMS_P2;Temp;Humidity;BMP_temperature;BMP_pressure;BME280_temperature;BME280_humidity;BME280_pressure;Samples;Min_cycle;Max_cycle;Signal;HPM_P1;HPM_P2
2022/05/09 00:00:08;;;;;;;6.27;2.37;;;9.20;99.90;;;;;;5055611;28;20190;-76
2022/05/09 00:02:33;;;;;;;4.77;2.43;;;9.20;99.90;;;;;;5054961;28;20195;-76
2022/05/09 00:04:59;;;;;;;5.87;2.40;;;9.20;99.90;;;;;;5054954;28;20657;-76
2022/05/09 00:07:25;;;;;;;7.93;2.40;;;9.10;99.90;;;;;;5053989;28;20183;-77
2022/05/09 00:09:50;;;;;;;4.60;2.47;;;9.20;99.90;;;;;;5055363;28;20514;-76
2022/05/09 00:12:16;;;;;;;7.60;2.93;;;9.10;99.90;;;;;;5053605;28;20233;-76
2022/05/09 00:14:42;;;;;;;5.50;2.50;;;9.10;99.90;;;;;;5055012;28;20171;-77
2022/05/09 00:17:08;;;;;;;4.13;2.30;;;9.10;99.90;;;;;;5053313;28;20179;-77
2022/05/09 00:19:33;;;;;;;4.30;2.30;;;9.10;99.90;;;;;;5053399;28;20174;-76
2022/05/09 00:21:59;;;;;;;6.33;2.80;;;9.10;99.90;;;;;;5053221;28;20168;-76
2022/05/09 00:24:25;;;;;;;4.03;2.83;;;9.10;99.90;;;;;;5054438;28;20246;-77
2022/05/09 00:26:52;;;;;;;4.07;2.60;;;9.00;99.90;;;;;;5053609;28;20186;-77
2022/05/09 00:29:20;;;;;;;4.47;2.57;;;9.00;99.90;;;;;;5054791;28;20223;-76
2022/05/09 00:31:49;;;;;;;6.23;2.97;;;9.00;99.90;;;;;;5054440;28;20715;-76
2022/05/09 00:34:17;;;;;;;5.07;2.70;;;9.00;99.90;;;;;;5055079;28;20188;-76
2022/05/09 00:36:43;;;;;;;4.77;2.30;;;8.90;99.90;;;;;;5053677;28;20160;-76
2022/05/09 00:39:09;;;;;;;5.87;2.40;;;8.90;99.90;;;;;;5054630;28;20261;-76
2022/05/09 00:41:37;;;;;;;4.90;2.50;;;8.90;99.90;;;;;;5054667;28;20592;-77
2022/05/09 00:44:06;;;;;;;9.17;3.10;;;8.90;99.90;;;;;;5054513;28;20218;-76
2022/05/09 00:46:33;;;;;;;5.30;2.90;;;8.80;99.90;;;;;;5054078;28;20603;-76
2022/05/09 00:49:25;;;;;;;4.93;2.63;;;8.80;99.90;;;;;;5054110;28;20604;-77
2022/05/09 00:51:59;;;;;;;6.87;2.53;;;8.80;99.90;;;;;;5025721;28;20187;-76
2022/05/09 00:54:27;;;;;;;4.60;2.60;;;8.80;99.90;;;;;;5053045;28;20576;-77
2022/05/09 00:57:00;;;;;;;5.50;2.73;;;8.80;99.90;;;;;;5054156;28;20246;-77
2022/05/09 00:59:29;;;;;;;8.23;2.57;;;8.70;99.90;;;;;;5053485;28;20202;-77
2022/05/09 01:01:54;;;;;;;4.13;2.80;;;8.70;99.90;;;;;;5054175;28;20259;-76
2022/05/09 01:04:26;;;;;;;5.10;2.50;;;8.70;99.90;;;;;;5054033;28;20280;-77
2022/05/09 01:06:53;;;;;;;4.80;2.73;;;8.70;99.90;;;;;;5052586;28;20167;-76
2022/05/09 01:09:18;;;;;;;5.30;2.97;;;8.70;99.90;;;;;;5053549;28;20597;-76
2022/05/09 01:11:45;;;;;;;4.23;2.87;;;8.70;99.90;;;;;;5052542;28;20177;-76
2022/05/09 01:14:20;;;;;;;4.37;2.80;;;8.70;99.90;;;;;;5053723;28;20218;-76
2022/05/09 01:16:48;;;;;;;5.33;3.00;;;8.70;99.90;;;;;;5054002;28;20151;-76
2022/05/09 01:19:30;;;;;;;8.50;2.90;;;8.60;99.90;;;;;;5052185;28;20232;-76
2022/05/09 01:21:57;;;;;;;3.67;2.57;;;8.60;99.90;;;;;;5052334;28;20547;-76
2022/05/09 01:24:25;;;;;;;5.10;2.80;;;8.60;99.90;;;;;;5053884;28;20179;-76
2022/05/09 01:26:51;;;;;;;5.03;2.90;;;8.60;99.90;;;;;;5052420;28;20175;-76
2022/05/09 01:29:25;;;;;;;4.47;2.93;;;8.60;99.90;;;;;;5053383;28;20664;-77
2022/05/09 01:31:53;;;;;;;5.97;2.80;;;8.50;99.90;;;;;;5053427;28;20650;-76
2022/05/09 01:34:19;;;;;;;5.73;2.83;;;8.50;99.90;;;;;;5053408;28;20187;-77
2022/05/09 01:36:54;;;;;;;4.97;2.93;;;8.50;99.90;;;;;;5053432;28;20175;-76
2022/05/09 01:39:19;;;;;;;6.33;2.93;;;8.40;99.90;;;;;;5053097;28;20297;-76
2022/05/09 01:41:50;;;;;;;5.83;3.50;;;8.40;99.90;;;;;;5053232;28;20255;-76
2022/05/09 01:44:17;;;;;;;4.83;2.87;;;8.40;99.90;;;;;;5053549;28;20601;-76
2022/05/09 01:49:31;;;;;;;4.37;3.00;;;8.30;99.90;;;;;;5057330;28;20669;-76
2022/05/09 01:52:04;;;;;;;4.97;3.03;;;8.30;99.90;;;;;;5057382;28;20175;-76
2022/05/09 01:54:30;;;;;;;6.07;3.10;;;8.30;99.90;;;;;;5057327;28;20570;-76
2022/05/09 01:56:56;;;;;;;4.50;2.90;;;8.20;99.90;;;;;;5057246;28;20197;-76
2022/05/09 01:59:22;;;;;;;5.27;3.30;;;8.30;99.90;;;;;;5057388;28;20713;-77
2022/05/09 02:01:55;;;;;;;5.03;3.00;;;8.30;99.90;;;;;;5057234;28;20168;-76
2022/05/09 02:04:22;;;;;;;5.97;2.80;;;8.20;99.90;;;;;;5057209;28;20167;-76
2022/05/09 02:06:47;;;;;;;5.00;2.97;;;8.20;99.90;;;;;;5057128;28;20179;-76
2022/05/09 02:09:13;;;;;;;3.83;2.93;;;8.20;99.90;;;;;;5057250;28;20195;-77
2022/05/09 02:11:38;;;;;;;7.43;3.37;;;8.20;99.90;;;;;;5056848;28;20179;-76
2022/05/09 02:14:04;;;;;;;8.57;2.97;;;8.10;99.90;;;;;;5056905;28;20198;-76
2022/05/09 02:16:30;;;;;;;4.87;2.73;;;8.10;99.90;;;;;;5057235;28;20178;-76
2022/05/09 02:18:55;;;;;;;7.10;3.07;;;8.10;99.90;;;;;;5056767;28;20187;-76
2022/05/09 02:21:21;;;;;;;8.70;3.00;;;8.20;99.90;;;;;;5056735;28;20171;-76
2022/05/09 02:23:47;;;;;;;7.57;3.57;;;8.10;99.90;;;;;;5056197;28;20222;-76
2022/05/09 02:26:13;;;;;;;7.90;3.23;;;8.10;99.90;;;;;;5054844;28;20625;-76
2022/05/09 02:28:39;;;;;;;5.30;3.03;;;8.10;99.90;;;;;;5056136;28;20249;-76
2022/05/09 02:31:05;;;;;;;4.57;2.93;;;8.10;99.90;;;;;;5056143;28;20175;-76
2022/05/09 02:33:31;;;;;;;5.03;2.90;;;8.10;99.90;;;;;;5056071;28;20192;-76
2022/05/09 02:35:56;;;;;;;3.53;2.67;;;8.10;99.90;;;;;;5054979;28;20193;-76
2022/05/09 02:38:24;;;;;;;5.77;2.77;;;8.00;99.90;;;;;;5055837;28;20194;-76
2022/05/09 02:40:51;;;;;;;6.97;2.70;;;8.00;99.90;;;;;;5055968;28;20198;-76
2022/05/09 02:43:17;;;;;;;7.20;3.20;;;8.10;99.90;;;;;;5054592;28;20266;-76
2022/05/09 02:45:43;;;;;;;7.17;3.17;;;8.00;99.90;;;;;;5054578;28;20266;-76
2022/05/09 02:48:10;;;;;;;5.43;3.00;;;8.00;99.90;;;;;;5055800;28;20608;-76
2022/05/09 02:50:36;;;;;;;6.80;3.33;;;8.00;99.90;;;;;;5055844;28;20171;-76
2022/05/09 02:53:02;;;;;;;4.70;3.30;;;8.00;99.90;;;;;;5055864;28;20206;-76
2022/05/09 02:55:28;;;;;;;5.20;3.20;;;8.00;99.90;;;;;;5054455;28;20175;-77
2022/05/09 02:57:54;;;;;;;8.03;3.73;;;8.00;99.90;;;;;;5054297;28;20281;-76
2022/05/09 03:00:23;;;;;;;5.40;3.27;;;8.00;99.90;;;;;;5055119;28;20218;-76
2022/05/09 03:05:37;;;;;;;7.70;3.83;;;7.90;99.90;;;;;;5055899;28;20247;-76
2022/05/09 03:08:02;;;;;;;5.53;3.50;;;7.90;99.90;;;;;;5055530;28;20192;-76
2022/05/09 03:10:31;;;;;;;5.87;3.27;;;7.90;99.90;;;;;;5055425;28;20747;-76
2022/05/09 03:13:01;;;;;;;4.13;3.10;;;7.90;99.90;;;;;;5054122;28;20191;-76
2022/05/09 03:15:28;;;;;;;6.63;3.53;;;7.90;99.90;;;;;;5055562;28;20172;-76
2022/05/09 03:17:54;;;;;;;4.93;3.63;;;7.90;99.90;;;;;;5055339;28;20191;-76
2022/05/09 03:20:21;;;;;;;5.87;4.00;;;7.90;99.90;;;;;;5054044;28;20226;-76
2022/05/09 03:22:46;;;;;;;10.97;4.30;;;7.90;99.90;;;;;;5055516;28;20584;-76
2022/05/09 03:25:12;;;;;;;5.87;3.70;;;7.90;99.90;;;;;;5054030;28;20179;-76
2022/05/09 03:27:38;;;;;;;7.83;3.60;;;7.90;99.90;;;;;;5055321;28;20542;-76
2022/05/09 03:30:05;;;;;;;5.40;3.63;;;7.90;99.90;;;;;;5053922;28;20660;-76
2022/05/09 03:32:31;;;;;;;9.60;3.97;;;8.00;99.90;;;;;;5055083;28;20175;-76
2022/05/09 03:34:56;;;;;;;6.87;3.63;;;8.00;99.90;;;;;;5053799;28;20308;-76
2022/05/09 03:37:22;;;;;;;10.60;3.77;;;8.00;99.90;;;;;;5055019;28;20546;-77
2022/05/09 03:39:48;;;;;;;5.10;3.53;;;8.00;99.90;;;;;;5055121;28;20194;-76
2022/05/09 03:42:14;;;;;;;7.77;3.93;;;8.10;99.90;;;;;;5053874;28;20650;-77
2022/05/09 03:44:39;;;;;;;9.33;4.30;;;8.10;99.90;;;;;;5055726;28;20642;-77
2022/05/09 03:47:05;;;;;;;7.77;3.90;;;8.10;99.90;;;;;;5055070;28;20245;-75
2022/05/09 03:49:30;;;;;;;10.20;4.10;;;8.10;99.90;;;;;;5054762;28;20190;-76
2022/05/09 03:51:56;;;;;;;8.03;3.90;;;8.10;99.90;;;;;;5054678;28;20179;-76
2022/05/09 03:54:21;;;;;;;6.90;4.33;;;8.10;99.90;;;;;;5054689;28;20290;-77
2022/05/09 03:56:47;;;;;;;6.10;3.83;;;8.10;99.90;;;;;;5054790;28;20554;-76
2022/05/09 03:59:12;;;;;;;7.67;3.67;;;8.10;99.90;;;;;;5053457;28;20737;-76
2022/05/09 04:01:38;;;;;;;7.73;4.27;;;8.10;99.90;;;;;;5054936;28;20203;-77
2022/05/09 04:04:03;;;;;;;8.87;3.77;;;8.20;99.90;;;;;;5054977;28;20179;-77
2022/05/09 04:06:29;;;;;;;7.97;3.73;;;8.20;99.90;;;;;;5054642;28;20168;-76
2022/05/09 04:08:55;;;;;;;11.40;4.87;;;8.20;99.90;;;;;;5054665;28;20226;-76
2022/05/09 04:11:20;;;;;;;5.83;4.03;;;8.20;99.90;;;;;;5054972;28;20168;-77
2022/05/09 04:13:46;;;;;;;13.17;5.10;;;8.20;99.90;;;;;;5053364;28;20196;-76
2022/05/09 04:18:59;;;;;;;9.67;4.73;;;8.10;99.90;;;;;;5054421;28;20226;-76
2022/05/09 04:21:25;;;;;;;10.20;4.30;;;8.10;99.90;;;;;;5054270;28;20194;-76
2022/05/09 04:23:55;;;;;;;5.33;4.20;;;8.10;99.90;;;;;;5054726;28;20578;-75
2022/05/09 04:26:25;;;;;;;9.73;4.67;;;8.10;99.90;;;;;;5054519;28;20156;-76
2022/05/09 04:28:51;;;;;;;9.80;4.33;;;8.10;99.90;;;;;;5054218;28;20274;-76
2022/05/09 04:31:17;;;;;;;7.63;3.80;;;8.10;99.90;;;;;;5053390;28;20554;-76
2022/05/09 04:33:42;;;;;;;5.97;3.53;;;8.10;99.90;;;;;;5052628;28;20195;-77
2022/05/09 04:36:08;;;;;;;11.27;4.97;;;8.10;99.90;;;;;;5054119;28;20641;-76
2022/05/09 04:38:38;;;;;;;6.23;4.03;;;8.20;99.90;;;;;;5053395;22;20222;-92
2022/05/09 04:41:04;;;;;;;12.90;4.50;;;8.20;99.90;;;;;;5086612;28;20709;-92
2022/05/09 04:43:31;;;;;;;9.70;4.43;;;8.10;99.90;;;;;;4994611;28;20244;-92
2022/05/09 04:46:01;;;;;;;7.93;4.70;;;8.10;99.90;;;;;;4995153;28;20233;-93
2022/05/09 04:48:27;;;;;;;9.33;4.73;;;8.20;99.90;;;;;;4995607;28;20184;-93
2022/05/09 04:50:53;;;;;;;8.57;4.20;;;8.20;99.90;;;;;;4994526;28;20200;-93
2022/05/09 04:53:19;;;;;;;10.87;4.30;;;8.20;99.90;;;;;;4994116;28;20228;-93
2022/05/09 04:55:45;;;;;;;7.57;4.03;;;8.20;99.90;;;;;;4994109;28;20184;-92
2022/05/09 04:58:13;;;;;;;6.30;4.27;;;8.20;99.90;;;;;;4994542;28;20184;-92
2022/05/09 05:00:39;;;;;;;8.77;4.70;;;8.20;99.90;;;;;;4995201;28;20623;-92
2022/05/09 05:03:04;;;;;;;6.13;3.97;;;8.20;99.90;;;;;;4995950;28;20217;-92
2022/05/09 05:05:30;;;;;;;9.47;4.40;;;8.20;99.90;;;;;;4995691;28;20182;-94
2022/05/09 05:07:55;;;;;;;6.90;3.70;;;8.20;99.90;;;;;;4996762;28;20182;-92
2022/05/09 05:10:21;;;;;;;5.07;3.97;;;8.30;99.90;;;;;;4996854;28;20205;-91
2022/05/09 05:12:47;;;;;;;12.37;3.83;;;9.30;99.90;;;;;;4996147;28;20231;-92
2022/05/09 05:15:13;;;;;;;10.20;3.73;;;8.30;99.90;;;;;;4996149;28;20260;-92
2022/05/09 05:17:40;;;;;;;10.70;4.10;;;8.30;99.90;;;;;;4995182;28;20173;-92
2022/05/09 05:20:12;;;;;;;7.03;3.60;;;8.30;99.90;;;;;;4994240;28;20204;-93
2022/05/09 05:22:42;;;;;;;6.77;3.87;;;8.40;99.90;;;;;;4992778;28;20227;-92
2022/05/09 05:25:10;;;;;;;8.63;4.00;;;8.40;99.90;;;;;;4992283;28;20281;-92
2022/05/09 05:27:36;;;;;;;8.00;4.47;;;8.40;99.90;;;;;;4992455;28;20643;-92
2022/05/09 05:30:02;;;;;;;8.03;4.23;;;8.40;99.90;;;;;;4992395;28;20186;-92
2022/05/09 05:32:31;;;;;;;10.33;4.63;;;8.50;99.90;;;;;;4992649;28;20186;-92
2022/05/09 05:34:57;;;;;;;8.87;4.60;;;8.50;99.90;;;;;;4993015;28;20694;-92
2022/05/09 05:37:23;;;;;;;8.33;4.23;;;8.50;99.90;;;;;;4992595;28;20177;-92
2022/05/09 05:39:49;;;;;;;11.70;4.90;;;9.50;99.90;;;;;;4993846;28;20193;-91
2022/05/09 05:42:18;;;;;;;9.93;4.87;;;8.60;99.90;;;;;;4993299;28;20190;-93
2022/05/09 05:44:45;;;;;;;7.90;5.13;;;8.60;99.90;;;;;;4992939;28;20201;-93
2022/05/09 05:47:13;;;;;;;10.80;4.77;;;8.70;99.90;;;;;;4991404;28;20231;-93
2022/05/09 05:49:39;;;;;;;9.27;4.53;;;8.70;99.90;;;;;;4990784;28;20192;-93
2022/05/09 05:52:06;;;;;;;9.17;5.00;;;9.10;99.90;;;;;;4990637;28;20197;-92
2022/05/09 05:54:36;;;;;;;9.23;4.50;;;8.80;99.90;;;;;;4990307;28;20243;-92
2022/05/09 05:57:03;;;;;;;7.33;4.20;;;8.80;99.90;;;;;;4990475;28;20185;-93
2022/05/09 05:59:30;;;;;;;8.83;4.40;;;8.90;99.90;;;;;;4991859;28;20541;-92
2022/05/09 06:01:55;;;;;;;9.40;4.93;;;8.90;99.90;;;;;;4990910;28;20204;-94
2022/05/09 06:04:21;;;;;;;9.57;5.27;;;9.00;99.90;;;;;;4991523;28;20174;-93
2022/05/09 06:06:48;;;;;;;9.07;4.97;;;9.10;99.90;;;;;;4990819;28;20205;-93
2022/05/09 06:09:13;;;;;;;8.70;5.07;;;9.20;99.90;;;;;;4991099;28;20209;-93
2022/05/09 06:11:40;;;;;;;7.13;5.00;;;9.20;99.90;;;;;;4992092;28;20225;-94
2022/05/09 06:14:15;;;;;;;9.67;4.80;;;9.30;99.90;;;;;;5007176;28;20231;-94
2022/05/09 06:16:42;;;;;;;7.17;4.73;;;9.40;99.90;;;;;;4994023;28;20215;-93
2022/05/09 06:19:08;;;;;;;11.53;4.87;;;9.50;99.90;;;;;;4990474;28;20181;-93
2022/05/09 06:21:37;;;;;;;7.97;5.03;;;9.60;99.90;;;;;;4991842;28;20220;-93
2022/05/09 06:24:06;;;;;;;8.33;5.23;;;9.70;99.90;;;;;;4998726;28;20216;-94
2022/05/09 06:26:34;;;;;;;8.80;4.57;;;9.70;99.90;;;;;;5008607;28;20189;-92
2022/05/09 06:29:00;;;;;;;8.87;4.50;;;9.80;99.90;;;;;;5014307;28;20170;-93
2022/05/09 06:31:26;;;;;;;13.47;4.87;;;9.90;99.90;;;;;;5000273;28;20205;-93
2022/05/09 06:33:51;;;;;;;8.43;5.00;;;10.00;99.90;;;;;;4992989;28;20205;-93
2022/05/09 06:36:17;;;;;;;7.77;4.97;;;10.10;99.90;;;;;;4994701;28;20185;-93
2022/05/09 06:38:42;;;;;;;7.80;4.77;;;10.20;99.90;;;;;;4994765;28;20197;-93
2022/05/09 06:41:10;;;;;;;8.30;4.20;;;10.30;99.90;;;;;;4998555;28;20659;-93
2022/05/09 06:43:36;;;;;;;9.23;4.37;;;10.40;99.90;;;;;;4994700;28;20181;-93
2022/05/09 06:46:02;;;;;;;9.50;4.47;;;10.50;99.90;;;;;;4994095;28;20182;-94
2022/05/09 06:48:28;;;;;;;7.43;3.90;;;10.60;99.90;;;;;;4994311;28;20188;-93
2022/05/09 06:50:54;;;;;;;4.57;3.77;;;10.80;99.90;;;;;;4994952;28;20308;-93
2022/05/09 06:53:20;;;;;;;8.83;4.80;;;10.90;99.90;;;;;;4994377;28;20299;-93
2022/05/09 06:55:48;;;;;;;7.57;3.83;;;11.50;99.90;;;;;;4994460;28;20231;-93
2022/05/09 06:58:17;;;;;;;9.87;4.30;;;11.10;99.90;;;;;;4994391;28;20693;-93
2022/05/09 07:00:43;;;;;;;6.00;3.57;;;11.30;99.90;;;;;;4993649;28;20572;-93
2022/05/09 07:03:08;;;;;;;10.77;3.87;;;11.40;99.90;;;;;;4993686;28;20244;-94
2022/05/09 07:05:37;;;;;;;6.73;3.10;;;11.50;99.90;;;;;;4995424;28;20273;-93
2022/05/09 07:08:03;;;;;;;7.87;2.97;;;11.70;99.90;;;;;;4995423;28;20217;-94
2022/05/09 07:10:29;;;;;;;7.37;3.47;;;11.80;99.90;;;;;;4993745;28;20266;-94
2022/05/09 07:12:56;;;;;;;8.70;2.93;;;11.90;99.90;;;;;;4997650;28;20201;-95
2022/05/09 07:15:25;;;;;;;9.37;2.80;;;12.10;20.80;;;;;;4998706;28;20186;-94
2022/05/09 07:17:51;;;;;;;8.33;3.27;;;12.00;24.70;;;;;;5010109;28;20170;-93
2022/05/09 07:20:19;;;;;;;6.53;3.10;;;12.30;1.00;;;;;;5012863;28;20288;-94
2022/05/09 07:22:44;;;;;;;6.23;2.67;;;12.20;1.00;;;;;;5011891;28;20178;-94
2022/05/09 07:25:13;;;;;;;5.03;2.50;;;12.40;1.00;;;;;;5013401;28;20264;-94
2022/05/09 07:27:42;;;;;;;6.50;3.07;;;12.50;1.00;;;;;;5007877;28;20175;-93
2022/05/09 07:30:09;;;;;;;10.60;3.20;;;13.00;1.00;;;;;;5004706;28;20197;-94
2022/05/09 07:32:36;;;;;;;5.57;2.83;;;12.60;1.00;;;;;;5003152;28;20221;-93
2022/05/09 07:35:04;;;;;;;6.60;2.80;;;12.70;1.00;;;;;;4994490;28;20241;-94
2022/05/09 07:37:30;;;;;;;7.90;2.50;;;12.80;99.90;;;;;;4993950;28;20173;-93
2022/05/09 07:39:55;;;;;;;8.33;2.60;;;13.00;99.90;;;;;;4994434;28;20200;-93
2022/05/09 07:42:21;;;;;;;5.47;2.63;;;13.10;99.90;;;;;;4994254;28;20173;-93
2022/05/09 07:44:46;;;;;;;7.23;2.40;;;13.30;99.90;;;;;;4994954;28;20186;-93
2022/05/09 07:47:12;;;;;;;7.23;2.30;;;13.50;1.00;;;;;;4993206;28;20267;-93
2022/05/09 07:49:37;;;;;;;6.33;2.20;;;13.60;1.00;;;;;;4993849;28;20181;-94
2022/05/09 07:52:05;;;;;;;7.47;2.13;;;13.60;99.90;;;;;;4992939;28;20202;-94
2022/05/09 07:54:31;;;;;;;6.87;2.17;;;13.80;99.90;;;;;;4992814;28;20229;-94
2022/05/09 07:56:57;;;;;;;4.37;2.17;;;14.20;1.00;;;;;;4992720;28;20235;-94
2022/05/09 07:59:22;;;;;;;6.27;2.30;;;14.00;1.00;;;;;;4993198;28;20670;-93
2022/05/09 08:01:48;;;;;;;5.80;2.33;;;14.10;1.00;;;;;;4992913;28;20236;-94
2022/05/09 08:04:14;;;;;;;11.20;2.00;;;14.20;1.00;;;;;;4994416;28;20182;-93
2022/05/09 08:06:39;;;;;;;5.83;2.20;;;14.30;1.00;;;;;;4994252;28;20598;-93
2022/05/09 08:09:05;;;;;;;7.10;2.13;;;14.50;1.00;;;;;;4993548;28;20670;-92
2022/05/09 08:11:31;;;;;;;5.40;1.90;;;15.00;99.90;;;;;;4994277;28;20558;-93
2022/05/09 08:13:56;;;;;;;3.73;1.70;;;14.70;1.00;;;;;;4994549;28;20205;-93
2022/05/09 08:16:25;;;;;;;7.07;2.13;;;14.90;64.70;;;;;;4994036;28;20585;-92
2022/05/09 08:18:51;;;;;;;6.40;2.30;;;14.80;70.80;;;;;;4998458;28;20553;-93
2022/05/09 08:21:17;;;;;;;4.53;2.33;;;15.20;1.00;;;;;;4992626;28;20281;-93
2022/05/09 08:23:42;;;;;;;6.07;2.30;;;15.00;1.00;;;;;;4994109;28;20281;-93
2022/05/09 08:26:08;;;;;;;6.50;2.40;;;15.00;1.00;;;;;;4993023;28;20186;-93
2022/05/09 08:28:34;;;;;;;5.37;2.20;;;15.20;1.00;;;;;;4993116;28;20185;-93
2022/05/09 08:30:59;;;;;;;6.17;2.30;;;15.20;1.00;;;;;;4992628;28;20646;-93
2022/05/09 08:33:28;;;;;;;5.03;1.93;;;15.30;99.40;;;;;;5025421;22;20273;-74
2022/05/09 08:35:54;;;;;;;4.37;2.37;;;15.40;99.90;;;;;;5053992;28;20171;-76
2022/05/09 08:38:21;;;;;;;6.83;2.50;;;15.40;99.90;;;;;;5036054;28;20195;-75
2022/05/09 08:41:12;;;;;;;7.20;2.83;;;15.60;1.00;;;;;;5053941;28;20175;-76
2022/05/09 08:43:59;;;;;;;5.00;2.40;;;15.80;99.90;;;;;;5054138;28;20232;-76
2022/05/09 08:46:38;;;;;;;4.33;2.07;;;15.90;99.90;;;;;;5054133;28;20171;-75
2022/05/09 08:49:22;;;;;;;5.23;2.20;;;15.90;99.90;;;;;;5036577;28;20199;-76
2022/05/09 08:52:03;;;;;;;4.70;2.70;;;16.00;99.90;;;;;;5053787;28;20641;-75
2022/05/09 08:54:30;;;;;;;6.17;2.57;;;16.10;1.00;;;;;;5035799;28;20198;-76
2022/05/09 08:57:08;;;;;;;6.27;2.40;;;16.20;1.00;;;;;;5053320;28;20218;-75
2022/05/09 08:59:48;;;;;;;4.60;2.30;;;16.40;99.90;;;;;;5053439;28;20604;-76
2022/05/09 09:02:19;;;;;;;7.03;2.30;;;16.70;99.90;;;;;;5053614;28;20504;-76
2022/05/09 09:04:52;;;;;;;5.63;2.43;;;16.90;1.00;;;;;;5058594;28;20164;-75
2022/05/09 09:07:46;;;;;;;5.17;2.63;;;16.90;1.00;;;;;;5061142;28;20168;-76
2022/05/09 09:10:22;;;;;;;7.33;3.23;;;17.00;1.00;;;;;;5062149;28;20259;-76
2022/05/09 09:13:06;;;;;;;5.00;2.23;;;17.10;1.00;;;;;;5043464;28;20735;-76
2022/05/09 09:15:45;;;;;;;5.87;2.63;;;17.30;1.00;;;;;;5064798;28;20159;-76
2022/05/09 09:18:22;;;;;;;7.10;3.17;;;17.50;99.90;;;;;;5068887;28;20251;-76
2022/05/09 09:20:54;;;;;;;7.97;3.00;;;17.80;1.00;;;;;;5045594;28;20652;-77
2022/05/09 09:23:35;;;;;;;4.63;2.83;;;17.80;11.80;;;;;;5054229;28;20159;-77
2022/05/09 09:26:11;;;;;;;7.13;2.77;;;17.80;99.90;;;;;;5035413;28;20175;-76
2022/05/09 09:28:49;;;;;;;5.30;3.03;;;17.80;99.90;;;;;;5035437;28;20191;-76
2022/05/09 09:31:47;;;;;;;9.20;3.40;;;17.80;99.90;;;;;;5037314;28;20167;-81
2022/05/09 09:34:32;;;;;;;6.20;2.90;;;18.00;99.90;;;;;;5018234;28;20723;-78
2022/05/09 09:37:13;;;;;;;6.57;3.40;;;18.10;99.90;;;;;;5037888;28;20164;-77
2022/05/09 09:39:39;;;;;;;6.20;3.23;;;18.20;1.00;;;;;;5054770;28;20184;-78
2022/05/09 09:42:06;;;;;;;4.77;2.57;;;18.60;1.00;;;;;;5054435;28;20168;-78
2022/05/09 09:44:37;;;;;;;5.90;3.30;;;18.60;99.90;;;;;;5054639;28;20210;-78
2022/05/09 09:47:05;;;;;;;5.50;3.37;;;18.90;1.00;;;;;;5056309;28;20154;-78
2022/05/09 09:49:33;;;;;;;6.10;3.60;;;18.70;1.00;;;;;;5056509;28;20226;-77
2022/05/09 09:51:59;;;;;;;5.63;3.27;;;18.70;1.00;;;;;;5037525;28;20591;-77
2022/05/09 09:54:33;;;;;;;7.27;3.53;;;18.80;1.00;;;;;;5053556;28;20245;-77
2022/05/09 09:57:19;;;;;;;8.03;3.10;;;18.90;1.00;;;;;;5035754;28;20621;-75
2022/05/09 09:59:45;;;;;;;8.47;3.33;;;19.00;1.00;;;;;;5035266;28;20195;-76
2022/05/09 10:02:21;;;;;;;4.53;2.90;;;19.10;99.90;;;;;;5053009;28;20642;-77
2022/05/09 10:04:48;;;;;;;5.00;3.83;;;19.00;99.90;;;;;;5053527;28;20159;-77
2022/05/09 10:07:35;;;;;;;7.23;3.60;;;19.10;1.00;;;;;;5053485;28;20174;-77
2022/05/09 10:10:13;;;;;;;4.63;3.40;;;19.00;1.00;;;;;;5055848;28;20239;-77
2022/05/09 10:12:41;;;;;;;7.43;3.03;;;19.10;71.10;;;;;;5057213;28;20163;-77
2022/05/09 10:15:35;;;;;;;9.87;3.73;;;19.20;99.90;;;;;;5057004;28;20243;-77
2022/05/09 10:18:21;;;;;;;8.17;3.17;;;19.20;71.50;;;;;;5056871;28;20148;-77
2022/05/09 10:20:50;;;;;;;4.67;3.03;;;19.20;99.90;;;;;;5038999;28;20164;-76
2022/05/09 10:26:13;;;;;;;6.60;3.20;;;19.30;99.90;;;;;;5057422;28;20164;-77
2022/05/09 10:28:49;;;;;;;5.07;3.30;;;19.40;99.90;;;;;;5056972;28;20219;-77
2022/05/09 10:31:31;;;;;;;6.43;3.73;;;19.50;99.90;;;;;;5056977;28;20160;-76
2022/05/09 10:34:13;;;;;;;4.10;2.97;;;19.60;99.90;;;;;;5056688;28;20264;-77
2022/05/09 10:36:50;;;;;;;6.00;3.40;;;19.60;99.90;;;;;;5038890;28;20195;-77
2022/05/09 10:39:32;;;;;;;7.03;3.07;;;19.80;1.00;;;;;;5045063;22;20225;-74
2022/05/09 10:42:02;;;;;;;7.57;4.10;;;19.80;1.00;;;;;;4972398;28;20170;-75
2022/05/09 10:44:34;;;;;;;7.17;3.17;;;19.90;1.00;;;;;;4974115;28;20163;-72
2022/05/09 10:47:16;;;;;;;5.47;3.40;;;19.90;1.00;;;;;;4973837;28;20158;-75
2022/05/09 10:49:50;;;;;;;5.40;3.40;;;19.90;1.00;;;;;;4972566;28;20571;-75
2022/05/09 10:52:47;;;;;;;5.23;3.73;;;20.10;99.90;;;;;;4972303;28;20178;-75
2022/05/09 10:55:22;;;;;;;5.83;3.60;;;20.10;42.20;;;;;;4972173;28;20185;-72
2022/05/09 10:58:05;;;;;;;6.67;3.53;;;20.20;1.00;;;;;;4972237;28;20165;-72
2022/05/09 11:00:33;;;;;;;5.60;3.60;;;20.30;1.00;;;;;;4972069;28;20204;-72
2022/05/09 11:02:58;;;;;;;7.60;4.03;;;20.40;1.00;;;;;;4973440;28;20236;-72
2022/05/09 11:05:28;;;;;;;5.30;4.10;;;20.50;1.00;;;;;;4972018;28;20179;-72
2022/05/09 11:08:16;;;;;;;6.73;4.33;;;20.60;1.00;;;;;;4971866;28;20667;-72
2022/05/09 11:10:59;;;;;;;8.47;4.00;;;20.70;1.00;;;;;;4971900;28;20216;-72
2022/05/09 11:14:12;;;;;;;8.50;4.03;;;20.80;1.00;;;;;;4971847;28;20198;-73
2022/05/09 11:17:08;;;;;;;6.23;3.87;;;20.80;1.00;;;;;;4979726;28;20601;-74
2022/05/09 11:19:52;;;;;;;8.77;4.07;;;20.90;99.90;;;;;;4973322;28;20191;-73
2022/05/09 11:22:44;;;;;;;4.67;3.70;;;21.00;99.90;;;;;;4971276;28;20185;-72
2022/05/09 11:25:21;;;;;;;8.17;4.30;;;21.00;1.00;;;;;;4973219;28;20330;-72
2022/05/09 11:28:11;;;;;;;8.17;4.23;;;21.10;1.00;;;;;;4971871;28;20201;-73
2022/05/09 11:30:45;;;;;;;6.67;4.10;;;21.20;1.00;;;;;;4972948;28;20201;-71
2022/05/09 11:33:34;;;;;;;6.13;4.67;;;21.20;99.90;;;;;;4972977;28;20244;-72
2022/05/09 11:36:36;;;;;;;8.30;4.80;;;21.30;1.00;;;;;;4972958;28;20197;-72
2022/05/09 11:39:13;;;;;;;7.53;4.47;;;21.30;1.00;;;;;;4971390;28;20214;-74
2022/05/09 11:41:57;;;;;;;8.10;4.13;;;21.30;99.90;;;;;;4973062;28;20167;-72
2022/05/09 11:44:37;;;;;;;8.77;5.20;;;21.40;1.00;;;;;;4971844;28;20166;-72
2022/05/09 11:47:23;;;;;;;9.40;4.27;;;21.50;1.00;;;;;;4973215;28;20151;-72
2022/05/09 11:50:13;;;;;;;6.50;4.20;;;21.70;1.00;;;;;;4971509;28;20656;-72
2022/05/09 11:52:42;;;;;;;6.83;4.27;;;21.80;1.00;;;;;;4972933;28;20690;-72
2022/05/09 11:55:10;;;;;;;6.07;3.90;;;21.80;1.00;;;;;;4972700;28;20200;-72
2022/05/09 11:57:40;;;;;;;7.43;4.80;;;21.80;1.00;;;;;;4972527;28;20170;-73
2022/05/09 12:00:26;;;;;;;6.90;4.07;;;21.80;1.00;;;;;;4971347;28;20281;-74
2022/05/09 12:02:54;;;;;;;6.40;4.17;;;21.50;1.00;;;;;;4975873;28;20244;-74
2022/05/09 12:05:31;;;;;;;5.53;4.07;;;21.60;1.00;;;;;;4971370;28;20189;-75
2022/05/09 12:07:56;;;;;;;5.43;3.60;;;21.70;1.00;;;;;;4971207;28;20167;-74
2022/05/09 12:10:28;;;;;;;6.27;3.80;;;21.80;99.90;;;;;;4971068;28;20558;-74
2022/05/09 12:12:59;;;;;;;4.47;3.43;;;21.90;1.00;;;;;;4972342;28;20198;-74
2022/05/09 12:15:38;;;;;;;7.17;3.77;;;22.00;1.00;;;;;;4971259;28;20170;-74
2022/05/09 12:18:07;;;;;;;12.17;4.07;;;22.20;1.00;;;;;;4972576;28;20162;-74
2022/05/09 12:20:37;;;;;;;4.30;3.53;;;22.20;99.90;;;;;;4971062;28;20195;-75
2022/05/09 12:23:32;;;;;;;7.47;4.67;;;22.30;1.00;;;;;;4972613;28;20171;-74
2022/05/09 12:26:03;;;;;;;7.07;4.10;;;22.40;99.90;;;;;;4972129;28;20190;-74
2022/05/09 12:28:35;;;;;;;5.83;3.73;;;22.50;99.90;;;;;;4972565;28;20163;-75
2022/05/09 12:31:25;;;;;;;6.33;3.47;;;22.40;99.90;;;;;;4971064;28;20202;-75
2022/05/09 12:33:52;;;;;;;3.87;3.20;;;22.50;1.00;;;;;;4969887;28;20202;-76
2022/05/09 12:36:28;;;;;;;5.10;3.03;;;22.60;99.90;;;;;;4972023;28;20179;-76
2022/05/09 12:38:59;;;;;;;5.30;3.73;;;22.70;87.20;;;;;;4970570;28;20159;-76
2022/05/09 12:41:31;;;;;;;4.93;3.10;;;22.70;99.90;;;;;;4972156;28;20177;-76
2022/05/09 12:44:17;;;;;;;5.30;3.10;;;22.80;99.90;;;;;;4971992;28;20251;-76
2022/05/09 12:46:58;;;;;;;6.03;3.33;;;22.90;99.90;;;;;;4970628;28;20216;-75
2022/05/09 12:49:37;;;;;;;9.93;3.40;;;22.90;1.00;;;;;;4971036;28;20200;-76
2022/05/09 12:52:03;;;;;;;7.17;3.60;;;23.00;1.00;;;;;;4972111;28;20166;-76
2022/05/09 12:54:30;;;;;;;4.87;3.13;;;23.00;1.00;;;;;;4971944;28;20206;-75
2022/05/09 12:56:59;;;;;;;6.60;3.80;;;23.00;1.00;;;;;;4971999;28;20584;-75
2022/05/09 12:59:27;;;;;;;5.10;3.33;;;23.10;26.20;;;;;;4971724;28;20273;-75
2022/05/09 13:01:59;;;;;;;5.80;3.47;;;23.20;1.00;;;;;;4970468;28;20257;-75
2022/05/09 13:04:30;;;;;;;5.80;3.27;;;23.10;1.00;;;;;;4971741;28;20196;-75
2022/05/09 13:07:02;;;;;;;5.63;3.27;;;23.10;1.00;;;;;;4971859;28;20254;-75
2022/05/09 13:09:32;;;;;;;6.27;2.90;;;23.20;1.00;;;;;;4971811;28;20202;-75
2022/05/09 13:12:03;;;;;;;5.03;2.77;;;23.30;1.00;;;;;;4970184;28;20174;-75
2022/05/09 13:15:00;;;;;;;4.70;2.77;;;23.40;1.00;;;;;;4970344;28;20216;-75
2022/05/09 13:17:34;;;;;;;6.07;3.03;;;23.40;1.00;;;;;;4970445;28;20186;-76
2022/05/09 13:20:00;;;;;;;10.33;3.37;;;23.40;1.00;;;;;;4971584;28;20297;-76